Time;durP1;ratioP1;P1;durP2;ratioP2;P2;SDS_P1;SDS_P2;PMS_P1;PMS_P2;Temp;Humidity;BMP_temperature;BMP_pressure;BME280_temperature;BME280_humidity;BME280_pressure;Samples;Min_cycle;Max_cycle;Signal;HPM_P1;HPM_P2
2023/01/20 00:01:12;;;;;;;;;;;21.40;32.10;;;;;;463100;256;1649;-43
2023/01/20 00:03:13;;;;;;;;;;;21.30;32.10;;;;;;463111;256;1744;-43
2023/01/20 00:05:15;;;;;;;;;;;21.40;32.20;;;;;;444500;266;1952;-43
2023/01/20 00:07:16;;;;;;;;;;;21.40;32.20;;;;;;451936;262;1699;-43
2023/01/20 00:09:17;;;;;;;;;;;21.40;32.20;;;;;;464854;256;2056;-43
2023/01/20 00:11:19;;;;;;;;;;;21.30;32.10;;;;;;444402;266;1689;-43
2023/01/20 00:13:20;;;;;;;;;;;21.40;32.20;;;;;;451902;262;2165;-43
2023/01/20 00:15:21;;;;;;;;;;;21.40;32.20;;;;;;464991;256;1813;-43
2023/01/20 00:17:22;;;;;;;;;;;21.30;32.10;;;;;;463097;256;1692;-43
2023/01/20 00:19:24;;;;;;;;;;;21.30;32.20;;;;;;444413;266;1887;-43
2023/01/20 00:21:25;;;;;;;;;;;21.30;32.20;;;;;;444317;267;1688;-43
2023/01/20 00:23:26;;;;;;;;;;;21.30;32.20;;;;;;451790;262;1768;-43
2023/01/20 00:25:28;;;;;;;;;;;21.30;32.20;;;;;;465050;256;1951;-43
2023/01/20 00:27:29;;;;;;;;;;;21.30;32.20;;;;;;463034;256;1781;-43
2023/01/20 00:29:30;;;;;;;;;;;21.20;32.20;;;;;;462949;256;1726;-43
2023/01/20 00:31:32;;;;;;;;;;;21.20;32.30;;;;;;462897;256;2185;-43
2023/01/20 00:33:33;;;;;;;;;;;21.20;32.30;;;;;;444201;266;2190;-43
2023/01/20 00:35:34;;;;;;;;;;;21.20;32.30;;;;;;444349;267;2551;-43
2023/01/20 00:37:36;;;;;;;;;;;21.20;32.30;;;;;;451840;262;2249;-43
2023/01/20 00:39:37;;;;;;;;;;;21.10;32.30;;;;;;464974;256;1967;-43
2023/01/20 00:41:38;;;;;;;;;;;21.10;32.30;;;;;;444342;266;1482;-43
2023/01/20 00:43:40;;;;;;;;;;;21.10;32.40;;;;;;452058;262;1678;-43
2023/01/20 00:45:41;;;;;;;;;;;21.10;32.40;;;;;;444735;267;2392;-43
2023/01/20 00:47:42;;;;;;;;;;;21.10;32.30;;;;;;452143;262;2277;-43
2023/01/20 00:49:44;;;;;;;;;;;21.10;32.30;;;;;;444406;267;2115;-43
2023/01/20 00:51:45;;;;;;;;;;;21.10;32.40;;;;;;444632;267;1718;-43
2023/01/20 00:53:46;;;;;;;;;;;21.10;32.40;;;;;;444353;267;2218;-43
2023/01/20 00:55:48;;;;;;;;;;;21.10;32.40;;;;;;444525;267;1751;-43
2023/01/20 00:57:49;;;;;;;;;;;21.10;32.40;;;;;;444501;267;2460;-43
2023/01/20 00:59:50;;;;;;;;;;;21.10;32.40;;;;;;451981;262;1763;-43
2023/01/20 01:01:52;;;;;;;;;;;21.10;32.40;;;;;;465112;256;2126;-43
2023/01/20 01:03:53;;;;;;;;;;;21.10;32.40;;;;;;463388;256;2701;-43
2023/01/20 01:05:55;;;;;;;;;;;21.10;32.40;;;;;;444348;266;1743;-43
2023/01/20 01:07:56;;;;;;;;;;;21.10;32.40;;;;;;444294;267;1723;-43
2023/01/20 01:09:57;;;;;;;;;;;21.10;32.40;;;;;;452052;262;1732;-42
2023/01/20 01:11:59;;;;;;;;;;;21.10;32.40;;;;;;465024;256;1727;-43
2023/01/20 01:14:00;;;;;;;;;;;21.00;32.50;;;;;;463500;256;2198;-43
2023/01/20 01:16:01;;;;;;;;;;;21.00;32.50;;;;;;444641;266;1698;-43
2023/01/20 01:18:03;;;;;;;;;;;21.00;32.50;;;;;;444748;267;1973;-43
2023/01/20 01:20:04;;;;;;;;;;;21.00;32.50;;;;;;452335;262;2495;-43
2023/01/20 01:22:05;;;;;;;;;;;21.00;32.50;;;;;;465248;256;1755;-43
2023/01/20 01:24:06;;;;;;;;;;;21.00;32.50;;;;;;444500;266;1964;-43
2023/01/20 01:26:08;;;;;;;;;;;21.00;32.50;;;;;;444547;267;1816;-43
2023/01/20 01:28:09;;;;;;;;;;;21.00;32.50;;;;;;452180;262;2097;-43
2023/01/20 01:30:10;;;;;;;;;;;20.90;32.50;;;;;;465040;256;1745;-43
2023/01/20 01:32:12;;;;;;;;;;;21.00;32.60;;;;;;463424;256;1933;-43
2023/01/20 01:34:14;;;;;;;;;;;20.90;32.60;;;;;;452047;261;2201;-43
2023/01/20 01:36:15;;;;;;;;;;;20.90;32.50;;;;;;444607;267;1884;-43
2023/01/20 01:38:16;;;;;;;;;;;21.00;32.60;;;;;;452058;262;2187;-43
2023/01/20 01:40:17;;;;;;;;;;;20.90;32.50;;;;;;465064;256;1996;-43
2023/01/20 01:42:18;;;;;;;;;;;20.90;32.60;;;;;;463231;256;1755;-43
2023/01/20 01:44:20;;;;;;;;;;;20.90;32.50;;;;;;463209;256;1346;-43
2023/01/20 01:46:21;;;;;;;;;;;20.90;32.60;;;;;;463222;256;1804;-43
2023/01/20 01:48:22;;;;;;;;;;;20.90;32.60;;;;;;463428;256;1806;-43
2023/01/20 01:50:24;;;;;;;;;;;20.90;32.60;;;;;;463201;256;2153;-43
2023/01/20 01:52:25;;;;;;;;;;;20.90;32.60;;;;;;463604;256;1635;-43
2023/01/20 01:54:26;;;;;;;;;;;20.90;32.60;;;;;;463197;256;2203;-43
2023/01/20 01:56:28;;;;;;;;;;;20.90;32.60;;;;;;463203;256;1965;-42
2023/01/20 01:58:29;;;;;;;;;;;20.90;32.60;;;;;;463284;256;1733;-43
2023/01/20 02:00:30;;;;;;;;;;;20.90;32.60;;;;;;463278;256;2263;-43
2023/01/20 02:02:32;;;;;;;;;;;20.90;32.60;;;;;;444505;266;1904;-43
2023/01/20 02:04:33;;;;;;;;;;;20.90;32.60;;;;;;444726;267;1665;-43
2023/01/20 02:06:34;;;;;;;;;;;20.90;32.60;;;;;;444460;267;2017;-43
2023/01/20 02:08:36;;;;;;;;;;;20.90;32.60;;;;;;452134;262;1734;-43
2023/01/20 02:10:37;;;;;;;;;;;20.90;32.70;;;;;;465046;256;1891;-43
2023/01/20 02:12:39;;;;;;;;;;;20.90;32.60;;;;;;463399;256;1936;-43
2023/01/20 02:14:40;;;;;;;;;;;20.80;32.60;;;;;;463371;256;2199;-43
2023/01/20 02:16:42;;;;;;;;;;;20.80;32.60;;;;;;444649;266;2458;-43
2023/01/20 02:18:43;;;;;;;;;;;20.80;32.70;;;;;;444734;267;1930;-43
2023/01/20 02:20:44;;;;;;;;;;;20.80;32.70;;;;;;452315;262;1622;-43
2023/01/20 02:22:46;;;;;;;;;;;20.80;32.70;;;;;;465010;256;1724;-43
2023/01/20 02:24:47;;;;;;;;;;;20.80;32.70;;;;;;444467;266;1719;-43
2023/01/20 02:26:48;;;;;;;;;;;20.80;32.70;;;;;;452005;262;2221;-43
2023/01/20 02:28:50;;;;;;;;;;;20.80;32.70;;;;;;465034;256;2160;-42
2023/01/20 02:30:51;;;;;;;;;;;20.80;32.70;;;;;;444419;266;1951;-43
2023/01/20 02:32:52;;;;;;;;;;;20.80;32.70;;;;;;444468;267;1841;-43
2023/01/20 02:34:54;;;;;;;;;;;20.80;32.70;;;;;;444322;267;2694;-43
2023/01/20 02:36:55;;;;;;;;;;;20.80;32.70;;;;;;452059;262;1847;-42
2023/01/20 02:38:56;;;;;;;;;;;20.80;32.70;;;;;;465231;256;1934;-43
2023/01/20 02:40:58;;;;;;;;;;;20.80;32.70;;;;;;444486;266;1714;-43
2023/01/20 02:42:59;;;;;;;;;;;20.80;32.70;;;;;;452023;262;1787;-43
2023/01/20 02:45:00;;;;;;;;;;;20.80;32.70;;;;;;465215;256;2166;-43
2023/01/20 02:47:02;;;;;;;;;;;20.80;32.70;;;;;;463279;256;3352;-43
2023/01/20 02:49:03;;;;;;;;;;;20.80;32.70;;;;;;452112;262;2200;-43
2023/01/20 02:51:06;;;;;;;;;;;20.90;32.70;;;;;;444433;267;1761;-43
2023/01/20 02:53:06;;;;;;;;;;;21.00;32.30;;;;;;452071;262;2644;-43
2023/01/20 02:55:07;;;;;;;;;;;21.20;32.00;;;;;;464945;256;1726;-43
2023/01/20 02:57:10;;;;;;;;;;;21.40;31.80;;;;;;463294;256;2061;-43
2023/01/20 02:59:10;;;;;;;;;;;21.50;31.50;;;;;;463175;256;2166;-43
2023/01/20 03:01:11;;;;;;;;;;;21.70;31.30;;;;;;463256;256;1753;-43
2023/01/20 03:03:13;;;;;;;;;;;21.80;31.20;;;;;;444744;266;1716;-43
2023/01/20 03:05:14;;;;;;;;;;;21.80;31.00;;;;;;444618;267;2100;-43
2023/01/20 03:07:15;;;;;;;;;;;21.90;31.00;;;;;;444467;267;1809;-43
2023/01/20 03:09:17;;;;;;;;;;;22.00;30.90;;;;;;444372;267;2685;-43
2023/01/20 03:11:18;;;;;;;;;;;22.00;30.80;;;;;;452007;262;2168;-43
2023/01/20 03:13:19;;;;;;;;;;;22.10;30.80;;;;;;465357;256;2209;-43
2023/01/20 03:15:21;;;;;;;;;;;22.10;30.70;;;;;;463433;256;1700;-44
2023/01/20 03:17:22;;;;;;;;;;;22.20;30.60;;;;;;444543;266;1714;-43
2023/01/20 03:19:23;;;;;;;;;;;22.20;30.50;;;;;;444463;267;1417;-43
2023/01/20 03:21:25;;;;;;;;;;;22.30;30.50;;;;;;444666;267;1735;-43
2023/01/20 03:23:26;;;;;;;;;;;22.30;30.50;;;;;;452178;262;1913;-42
2023/01/20 03:25:27;;;;;;;;;;;22.30;30.40;;;;;;465237;256;1659;-43
2023/01/20 03:27:29;;;;;;;;;;;22.40;30.40;;;;;;463301;256;1643;-43
2023/01/20 03:29:31;;;;;;;;;;;22.40;30.40;;;;;;463587;256;2136;-43
2023/01/20 03:31:31;;;;;;;;;;;22.40;30.40;;;;;;452146;261;2292;-43
2023/01/20 03:33:33;;;;;;;;;;;22.40;30.30;;;;;;444473;267;2222;-43
2023/01/20 03:35:34;;;;;;;;;;;22.50;30.30;;;;;;452451;262;2197;-43
2023/01/20 03:37:35;;;;;;;;;;;22.50;30.20;;;;;;465007;256;1697;-44
2023/01/20 03:39:38;;;;;;;;;;;22.50;30.20;;;;;;463511;256;1848;-43
2023/01/20 03:41:38;;;;;;;;;;;22.50;30.10;;;;;;463521;256;1994;-43
2023/01/20 03:43:40;;;;;;;;;;;22.50;30.10;;;;;;463169;256;1571;-43
2023/01/20 03:45:41;;;;;;;;;;;22.60;30.10;;;;;;463434;256;1748;-43
2023/01/20 03:47:42;;;;;;;;;;;22.60;30.00;;;;;;452194;261;1482;-43
2023/01/20 03:49:44;;;;;;;;;;;22.70;30.10;;;;;;444542;267;1629;-43
2023/01/20 03:51:45;;;;;;;;;;;22.70;30.00;;;;;;444434;267;1712;-43
2023/01/20 03:53:46;;;;;;;;;;;22.70;30.00;;;;;;444445;267;2219;-43
2023/01/20 03:55:48;;;;;;;;;;;22.70;30.00;;;;;;444490;267;2270;-44
2023/01/20 03:57:49;;;;;;;;;;;22.80;30.00;;;;;;444384;267;1737;-43
2023/01/20 03:59:50;;;;;;;;;;;22.80;30.00;;;;;;444577;267;1901;-43
2023/01/20 04:01:52;;;;;;;;;;;22.80;30.00;;;;;;444407;267;1911;-43
2023/01/20 04:03:53;;;;;;;;;;;22.80;30.00;;;;;;444288;267;1808;-43
2023/01/20 04:05:54;;;;;;;;;;;22.80;30.00;;;;;;451911;262;1594;-43
2023/01/20 04:07:56;;;;;;;;;;;22.80;30.00;;;;;;464884;256;1694;-43
2023/01/20 04:09:57;;;;;;;;;;;22.80;30.00;;;;;;444446;266;2166;-43
2023/01/20 04:11:58;;;;;;;;;;;22.90;30.00;;;;;;444553;267;1804;-43
2023/01/20 04:14:00;;;;;;;;;;;22.90;29.90;;;;;;444425;267;2194;-43
2023/01/20 04:16:01;;;;;;;;;;;22.90;29.90;;;;;;452082;262;1641;-44
2023/01/20 04:18:02;;;;;;;;;;;22.90;29.90;;;;;;465015;256;2125;-43
2023/01/20 04:20:04;;;;;;;;;;;22.90;29.90;;;;;;463297;256;1723;-43
2023/01/20 04:22:05;;;;;;;;;;;22.90;29.90;;;;;;444524;266;1720;-43
2023/01/20 04:24:06;;;;;;;;;;;22.90;29.90;;;;;;452164;262;1993;-43
2023/01/20 04:26:07;;;;;;;;;;;23.00;29.90;;;;;;465220;256;2137;-43
2023/01/20 04:28:09;;;;;;;;;;;23.00;29.90;;;;;;463487;256;1692;-44
2023/01/20 04:30:10;;;;;;;;;;;23.00;29.90;;;;;;463269;256;2137;-43
2023/01/20 04:32:11;;;;;;;;;;;23.00;29.90;;;;;;463150;256;1689;-43
2023/01/20 04:34:14;;;;;;;;;;;23.00;29.90;;;;;;463346;256;2183;-43
2023/01/20 04:36:14;;;;;;;;;;;23.00;29.80;;;;;;444839;267;1697;-43
2023/01/20 04:38:15;;;;;;;;;;;23.00;29.80;;;;;;452314;262;2589;-43
2023/01/20 04:40:17;;;;;;;;;;;23.10;29.80;;;;;;444770;267;1748;-43
2023/01/20 04:42:18;;;;;;;;;;;23.10;29.80;;;;;;451937;262;1765;-43
2023/01/20 04:44:19;;;;;;;;;;;23.10;29.80;;;;;;444427;267;1832;-43
2023/01/20 04:46:21;;;;;;;;;;;23.10;29.80;;;;;;444247;267;1745;-43
2023/01/20 04:48:22;;;;;;;;;;;23.10;29.80;;;;;;444347;267;1917;-43
2023/01/20 04:50:23;;;;;;;;;;;23.10;29.80;;;;;;444291;267;1687;-44
2023/01/20 04:52:25;;;;;;;;;;;23.20;29.80;;;;;;444232;267;1781;-43
2023/01/20 04:54:26;;;;;;;;;;;23.10;29.80;;;;;;451782;262;2208;-43
2023/01/20 04:56:27;;;;;;;;;;;23.20;29.80;;;;;;465062;256;2172;-44
2023/01/20 04:58:29;;;;;;;;;;;23.20;29.80;;;;;;463112;256;2695;-43
2023/01/20 05:00:30;;;;;;;;;;;23.20;29.80;;;;;;451853;261;1941;-43
2023/01/20 05:02:31;;;;;;;;;;;23.20;29.80;;;;;;451914;262;1839;-43
2023/01/20 05:04:33;;;;;;;;;;;23.20;29.80;;;;;;465034;256;1714;-43
2023/01/20 05:06:34;;;;;;;;;;;23.20;29.80;;;;;;463283;256;1892;-43
2023/01/20 05:08:35;;;;;;;;;;;23.20;29.70;;;;;;463311;256;1714;-43
2023/01/20 05:10:37;;;;;;;;;;;23.20;29.80;;;;;;463526;256;1940;-43
2023/01/20 05:12:40;;;;;;;;;;;23.20;29.70;;;;;;444558;266;1746;-43
2023/01/20 05:14:39;;;;;;;;;;;23.30;29.70;;;;;;444358;267;2214;-43
2023/01/20 05:16:41;;;;;;;;;;;23.30;29.70;;;;;;452100;262;2144;-43
2023/01/20 05:18:42;;;;;;;;;;;23.30;29.80;;;;;;465125;256;1644;-44
2023/01/20 05:20:43;;;;;;;;;;;23.30;29.70;;;;;;463242;256;2048;-43
2023/01/20 05:22:45;;;;;;;;;;;23.30;29.70;;;;;;463255;256;1717;-43
2023/01/20 05:24:46;;;;;;;;;;;23.30;29.70;;;;;;444525;266;1717;-43
2023/01/20 05:26:47;;;;;;;;;;;23.30;29.70;;;;;;452127;262;1729;-43
2023/01/20 05:28:49;;;;;;;;;;;23.30;29.70;;;;;;465204;256;2025;-43
2023/01/20 05:30:50;;;;;;;;;;;23.30;29.70;;;;;;444518;266;1760;-43
2023/01/20 05:32:51;;;;;;;;;;;23.30;29.70;;;;;;444440;267;1731;-44
2023/01/20 05:34:53;;;;;;;;;;;23.40;29.70;;;;;;444538;267;2217;-43
2023/01/20 05:36:54;;;;;;;;;;;23.40;29.70;;;;;;444528;267;1839;-43
2023/01/20 05:38:55;;;;;;;;;;;23.40;29.70;;;;;;444767;267;1696;-44
2023/01/20 05:40:57;;;;;;;;;;;23.30;29.70;;;;;;444393;267;1837;-44
2023/01/20 05:42:58;;;;;;;;;;;23.30;29.70;;;;;;451909;262;2018;-43
2023/01/20 05:44:59;;;;;;;;;;;23.40;29.70;;;;;;464962;256;1729;-43
2023/01/20 05:47:01;;;;;;;;;;;23.40;29.70;;;;;;463084;256;1729;-43
2023/01/20 05:49:02;;;;;;;;;;;23.40;29.70;;;;;;463088;256;2203;-43
2023/01/20 05:51:03;;;;;;;;;;;23.40;29.70;;;;;;444259;266;1953;-44
2023/01/20 05:53:04;;;;;;;;;;;23.40;29.70;;;;;;452049;262;2215;-43
2023/01/20 05:55:06;;;;;;;;;;;23.40;29.70;;;;;;464875;256;2229;-43
2023/01/20 05:57:07;;;;;;;;;;;23.40;29.70;;;;;;462985;256;1883;-43
2023/01/20 05:59:08;;;;;;;;;;;23.40;29.70;;;;;;462993;256;2228;-43
2023/01/20 06:01:10;;;;;;;;;;;23.50;29.70;;;;;;463058;256;1864;-43
2023/01/20 06:03:11;;;;;;;;;;;23.40;29.70;;;;;;463011;256;1612;-43
2023/01/20 06:05:12;;;;;;;;;;;23.40;29.70;;;;;;463067;256;1610;-43
2023/01/20 06:07:14;;;;;;;;;;;23.40;29.60;;;;;;463098;256;1732;-43
2023/01/20 06:09:15;;;;;;;;;;;23.50;29.70;;;;;;444506;266;2133;-43
2023/01/20 06:11:17;;;;;;;;;;;23.50;29.70;;;;;;444291;267;1721;-44
2023/01/20 06:13:18;;;;;;;;;;;23.50;29.70;;;;;;452163;262;1923;-43
2023/01/20 06:15:20;;;;;;;;;;;23.50;29.70;;;;;;464700;256;2190;-43
2023/01/20 06:17:21;;;;;;;;;;;23.50;29.70;;;;;;464949;255;1980;-43
2023/01/20 06:19:22;;;;;;;;;;;23.50;29.70;;;;;;462805;256;1699;-43
2023/01/20 06:21:24;;;;;;;;;;;23.50;29.60;;;;;;462856;256;1811;-43
2023/01/20 06:23:25;;;;;;;;;;;23.50;29.60;;;;;;462828;256;1754;-43
2023/01/20 06:25:27;;;;;;;;;;;23.50;29.60;;;;;;462767;256;1683;-43
2023/01/20 06:27:28;;;;;;;;;;;23.50;29.60;;;;;;462991;256;1857;-43
2023/01/20 06:29:29;;;;;;;;;;;23.60;29.60;;;;;;463002;256;1949;-43
2023/01/20 06:31:31;;;;;;;;;;;23.50;29.60;;;;;;463043;256;1673;-43
2023/01/20 06:33:32;;;;;;;;;;;23.50;29.60;;;;;;444288;266;2081;-43
2023/01/20 06:35:33;;;;;;;;;;;23.50;29.60;;;;;;444296;267;2202;-43
2023/01/20 06:37:35;;;;;;;;;;;23.60;29.70;;;;;;444323;267;1689;-43
2023/01/20 06:39:36;;;;;;;;;;;23.60;29.60;;;;;;451876;262;1746;-43
2023/01/20 06:41:37;;;;;;;;;;;23.60;29.70;;;;;;464985;256;1687;-43
2023/01/20 06:43:40;;;;;;;;;;;23.60;29.60;;;;;;444312;266;1714;-43
2023/01/20 06:45:40;;;;;;;;;;;23.60;29.60;;;;;;444302;267;2251;-43
2023/01/20 06:47:42;;;;;;;;;;;23.60;29.60;;;;;;444189;267;1817;-43
2023/01/20 06:49:43;;;;;;;;;;;23.60;29.60;;;;;;444038;267;1720;-43
2023/01/20 06:51:46;;;;;;;;;;;23.60;29.60;;;;;;451679;262;1570;-43
2023/01/20 06:53:46;;;;;;;;;;;23.60;29.60;;;;;;464413;256;2322;-43
2023/01/20 06:55:49;;;;;;;;;;;23.60;29.60;;;;;;451652;261;2212;-43
2023/01/20 06:57:48;;;;;;;;;;;23.60;29.60;;;;;;444221;267;1901;-43
2023/01/20 06:59:50;;;;;;;;;;;23.60;29.60;;;;;;444532;267;1666;-43
2023/01/20 07:01:51;;;;;;;;;;;23.70;29.60;;;;;;451888;262;1930;-43
2023/01/20 07:03:52;;;;;;;;;;;23.60;29.60;;;;;;464866;256;1598;-43
2023/01/20 07:05:54;;;;;;;;;;;23.70;29.60;;;;;;444352;266;1629;-44
2023/01/20 07:07:55;;;;;;;;;;;23.60;29.60;;;;;;452130;262;2692;-43
2023/01/20 07:09:56;;;;;;;;;;;23.70;29.60;;;;;;444638;267;1795;-43
2023/01/20 07:11:57;;;;;;;;;;;23.60;29.60;;;;;;451688;262;1591;-43
2023/01/20 07:13:59;;;;;;;;;;;23.60;29.70;;;;;;444066;267;1683;-43
2023/01/20 07:16:00;;;;;;;;;;;23.50;29.70;;;;;;444161;267;2194;-43
2023/01/20 07:18:01;;;;;;;;;;;23.30;29.90;;;;;;451745;262;1963;-43
2023/01/20 07:20:03;;;;;;;;;;;23.10;30.00;;;;;;464736;256;1687;-43
2023/01/20 07:22:04;;;;;;;;;;;22.90;30.10;;;;;;462635;256;2931;-43
2023/01/20 07:24:05;;;;;;;;;;;22.80;30.30;;;;;;462967;256;1637;-43
2023/01/20 07:26:07;;;;;;;;;;;22.70;30.50;;;;;;462895;256;1680;-43
2023/01/20 07:28:08;;;;;;;;;;;22.60;30.70;;;;;;444147;266;1655;-43
2023/01/20 07:30:09;;;;;;;;;;;22.50;30.80;;;;;;444202;267;1708;-43
2023/01/20 07:32:11;;;;;;;;;;;22.40;30.90;;;;;;451452;262;1702;-43
2023/01/20 07:34:12;;;;;;;;;;;22.30;31.00;;;;;;464286;256;1959;-42
2023/01/20 07:36:13;;;;;;;;;;;22.30;31.10;;;;;;462280;256;2210;-43
2023/01/20 07:38:15;;;;;;;;;;;22.20;31.10;;;;;;462218;256;1755;-43
2023/01/20 07:40:16;;;;;;;;;;;22.20;31.20;;;;;;462207;256;1709;-43
2023/01/20 07:42:17;;;;;;;;;;;22.10;31.20;;;;;;461849;256;1159;-43
2023/01/20 07:44:19;;;;;;;;;;;22.10;31.20;;;;;;462293;256;1917;-43
2023/01/20 07:46:20;;;;;;;;;;;22.10;31.30;;;;;;462227;256;2137;-43
2023/01/20 07:48:21;;;;;;;;;;;22.00;31.30;;;;;;462310;256;1652;-43
2023/01/20 07:50:23;;;;;;;;;;;22.00;31.30;;;;;;462428;256;1944;-43
2023/01/20 07:52:24;;;;;;;;;;;22.00;31.40;;;;;;462591;256;2009;-43
2023/01/20 07:54:25;;;;;;;;;;;22.00;31.40;;;;;;443789;266;2132;-43
2023/01/20 07:56:28;;;;;;;;;;;21.90;31.30;;;;;;451605;262;2233;-43
2023/01/20 07:58:28;;;;;;;;;;;21.90;31.40;;;;;;451463;262;2027;-43
2023/01/20 08:00:29;;;;;;;;;;;21.80;31.40;;;;;;451368;262;1936;-43
2023/01/20 08:02:31;;;;;;;;;;;21.80;31.50;;;;;;444225;267;1807;-43
2023/01/20 08:04:32;;;;;;;;;;;21.80;31.50;;;;;;451552;262;2375;-43
2023/01/20 08:06:33;;;;;;;;;;;21.80;31.50;;;;;;444078;267;2656;-43
2023/01/20 08:08:35;;;;;;;;;;;21.80;31.50;;;;;;451623;262;1787;-43
2023/01/20 08:10:36;;;;;;;;;;;21.70;31.50;;;;;;464365;256;1600;-43
2023/01/20 08:12:37;;;;;;;;;;;21.70;31.50;;;;;;462605;256;1690;-43
2023/01/20 08:14:39;;;;;;;;;;;21.70;31.70;;;;;;462668;256;1640;-43
2023/01/20 08:16:40;;;;;;;;;;;21.70;31.60;;;;;;444133;266;2175;-43
2023/01/20 08:18:42;;;;;;;;;;;21.70;31.60;;;;;;451711;262;1740;-43
2023/01/20 08:20:43;;;;;;;;;;;21.60;31.60;;;;;;464686;256;1808;-43
2023/01/20 08:22:44;;;;;;;;;;;21.70;31.70;;;;;;462857;256;2223;-43
2023/01/20 08:24:45;;;;;;;;;;;21.60;31.60;;;;;;444138;266;1884;-43
2023/01/20 08:26:47;;;;;;;;;;;21.60;31.70;;;;;;444132;267;2185;-43
2023/01/20 08:28:48;;;;;;;;;;;21.60;31.70;;;;;;451546;262;2037;-43
2023/01/20 08:30:49;;;;;;;;;;;21.60;31.70;;;;;;464847;256;1789;-43
2023/01/20 08:32:51;;;;;;;;;;;21.60;31.70;;;;;;444115;266;1811;-43
2023/01/20 08:34:52;;;;;;;;;;;21.50;31.70;;;;;;444094;267;1667;-43
2023/01/20 08:36:56;;;;;;;;;;;21.50;31.70;;;;;;444178;267;2169;-43
2023/01/20 08:38:55;;;;;;;;;;;21.50;31.70;;;;;;451644;262;2311;-43
2023/01/20 08:40:56;;;;;;;;;;;21.50;31.70;;;;;;464715;256;1686;-43
2023/01/20 08:42:58;;;;;;;;;;;21.50;31.70;;;;;;444088;266;1698;-43
2023/01/20 08:44:59;;;;;;;;;;;21.50;31.70;;;;;;451620;262;1921;-42
2023/01/20 08:47:01;;;;;;;;;;;21.50;31.70;;;;;;464813;256;1679;-43
2023/01/20 08:49:02;;;;;;;;;;;21.40;31.70;;;;;;443993;267;2274;-43
2023/01/20 08:51:03;;;;;;;;;;;21.40;31.70;;;;;;451683;262;1740;-43
2023/01/20 08:53:04;;;;;;;;;;;21.40;31.70;;;;;;464673;256;2195;-43
2023/01/20 08:55:06;;;;;;;;;;;21.40;31.70;;;;;;462773;256;1300;-43
2023/01/20 08:57:07;;;;;;;;;;;21.40;31.70;;;;;;462797;256;2202;-42
2023/01/20 08:59:08;;;;;;;;;;;21.40;31.80;;;;;;462723;256;1418;-43
2023/01/20 09:01:10;;;;;;;;;;;21.30;31.70;;;;;;462725;256;1713;-43
2023/01/20 09:03:11;;;;;;;;;;;21.40;31.70;;;;;;462592;256;2192;-42
2023/01/20 09:05:13;;;;;;;;;;;21.30;31.70;;;;;;444058;266;1442;-43
2023/01/20 09:07:14;;;;;;;;;;;21.30;31.60;;;;;;451500;262;1640;-43
2023/01/20 09:09:15;;;;;;;;;;;21.40;31.80;;;;;;464481;256;2143;-42
2023/01/20 09:11:16;;;;;;;;;;;21.30;31.60;;;;;;443868;266;1699;-43
2023/01/20 09:13:18;;;;;;;;;;;21.30;31.70;;;;;;443839;267;1674;-43
2023/01/20 09:15:19;;;;;;;;;;;21.30;31.70;;;;;;443786;267;2183;-43
2023/01/20 09:17:21;;;;;;;;;;;21.30;31.70;;;;;;443896;267;1980;-43
2023/01/20 09:19:22;;;;;;;;;;;21.30;31.70;;;;;;451390;262;1656;-43
2023/01/20 09:21:23;;;;;;;;;;;21.30;31.70;;;;;;464322;256;1714;-43
2023/01/20 09:23:24;;;;;;;;;;;21.30;31.70;;;;;;462589;256;1749;-43
2023/01/20 09:25:26;;;;;;;;;;;21.30;31.70;;;;;;443777;266;2022;-43
2023/01/20 09:27:27;;;;;;;;;;;21.30;31.70;;;;;;443837;267;2235;-43
2023/01/20 09:29:28;;;;;;;;;;;21.30;31.70;;;;;;443915;267;1780;-43
2023/01/20 09:31:30;;;;;;;;;;;21.30;31.70;;;;;;443949;267;1686;-42
2023/01/20 09:33:31;;;;;;;;;;;21.30;31.70;;;;;;443951;267;1985;-43
2023/01/20 09:35:32;;;;;;;;;;;21.30;31.70;;;;;;451517;262;2213;-43
2023/01/20 09:44:51;;;;;;;;;;;21.20;31.60;;;;;;448732;265;1764;-43
2023/01/20 09:53:51;;;;;;;;;;;21.20;31.70;;;;;;449020;264;2025;-43
2023/01/20 09:55:52;;;;;;;;;;;21.20;31.70;;;;;;440111;270;2275;-43
2023/01/20 09:57:58;;;;;;;;;;;21.20;31.70;;;;;;440288;270;2259;-43
2023/01/20 09:59:55;;;;;;;;;;;21.10;31.70;;;;;;448654;265;2594;-43
2023/01/20 10:01:57;;;;;;;;;;;21.20;31.70;;;;;;440113;270;1781;-42
2023/01/20 10:03:58;;;;;;;;;;;21.10;31.60;;;;;;438509;270;1791;-43
2023/01/20 10:05:59;;;;;;;;;;;21.10;31.60;;;;;;448663;265;2027;-43
2023/01/20 10:08:01;;;;;;;;;;;21.20;31.60;;;;;;440139;270;1374;-43
2023/01/20 10:10:03;;;;;;;;;;;21.10;31.60;;;;;;448642;265;1627;-43
2023/01/20 10:12:03;;;;;;;;;;;21.10;31.60;;;;;;440057;270;2173;-43
2023/01/20 10:14:05;;;;;;;;;;;21.10;31.60;;;;;;438358;271;2217;-43
2023/01/20 10:16:06;;;;;;;;;;;21.10;31.50;;;;;;454768;257;2207;-42
2023/01/20 10:18:08;;;;;;;;;;;21.10;31.60;;;;;;462707;256;1376;-43
2023/01/20 10:20:09;;;;;;;;;;;21.10;31.60;;;;;;462695;256;2210;-42
2023/01/20 10:22:10;;;;;;;;;;;21.10;31.60;;;;;;462717;256;1639;-43
2023/01/20 10:24:11;;;;;;;;;;;21.10;31.60;;;;;;462786;256;2179;-43
2023/01/20 10:26:13;;;;;;;;;;;21.10;31.60;;;;;;462451;256;1544;-43
2023/01/20 10:28:14;;;;;;;;;;;21.10;31.60;;;;;;462878;256;2116;-43
2023/01/20 10:30:15;;;;;;;;;;;21.10;31.60;;;;;;462573;256;1663;-43
2023/01/20 10:32:17;;;;;;;;;;;21.00;31.50;;;;;;462699;256;1337;-43
2023/01/20 10:34:18;;;;;;;;;;;21.10;31.60;;;;;;462833;256;1599;-43
2023/01/20 10:36:19;;;;;;;;;;;21.10;31.60;;;;;;462631;256;2202;-43
2023/01/20 10:38:21;;;;;;;;;;;21.00;31.60;;;;;;462709;256;1799;-42
2023/01/20 10:40:22;;;;;;;;;;;21.10;31.60;;;;;;462872;256;1688;-43
2023/01/20 10:42:27;;;;;;;;;;;21.10;31.60;;;;;;462600;256;1413;-43
2023/01/20 10:44:25;;;;;;;;;;;21.10;31.60;;;;;;462673;257;1850;-43
2023/01/20 10:46:26;;;;;;;;;;;21.00;31.50;;;;;;462647;256;1539;-43
2023/01/20 10:48:27;;;;;;;;;;;21.00;31.50;;;;;;462736;256;1627;-43
2023/01/20 10:50:29;;;;;;;;;;;21.00;31.60;;;;;;462700;256;1209;-43
2023/01/20 10:52:30;;;;;;;;;;;21.00;31.60;;;;;;462922;256;2065;-43
2023/01/20 10:54:31;;;;;;;;;;;21.00;31.60;;;;;;462921;256;2394;-43
2023/01/20 10:56:33;;;;;;;;;;;21.00;31.60;;;;;;462877;256;2207;-43
2023/01/20 10:58:34;;;;;;;;;;;21.00;31.50;;;;;;462783;256;2124;-43
2023/01/20 11:00:35;;;;;;;;;;;21.00;31.50;;;;;;462758;256;1979;-43
2023/01/20 11:02:37;;;;;;;;;;;21.00;31.50;;;;;;462860;256;1547;-42
2023/01/20 11:04:38;;;;;;;;;;;21.00;31.50;;;;;;462987;256;2334;-43
2023/01/20 11:06:39;;;;;;;;;;;21.00;31.50;;;;;;462908;256;1665;-43
2023/01/20 11:08:41;;;;;;;;;;;21.00;31.50;;;;;;462844;256;1528;-43
2023/01/20 11:10:43;;;;;;;;;;;21.00;31.50;;;;;;462926;256;1998;-43
2023/01/20 11:12:44;;;;;;;;;;;21.00;31.60;;;;;;463020;256;1794;-43
2023/01/20 11:14:45;;;;;;;;;;;20.90;31.50;;;;;;463060;256;1678;-42
2023/01/20 11:16:47;;;;;;;;;;;20.90;31.60;;;;;;462884;256;2187;-43
2023/01/20 11:18:48;;;;;;;;;;;20.90;31.60;;;;;;463044;256;1859;-43
2023/01/20 11:20:49;;;;;;;;;;;20.90;31.60;;;;;;462660;256;1704;-43
2023/01/20 11:22:51;;;;;;;;;;;20.90;31.50;;;;;;462709;256;1809;-43
2023/01/20 11:24:52;;;;;;;;;;;20.90;31.50;;;;;;462787;256;1825;-43
2023/01/20 11:26:53;;;;;;;;;;;20.90;31.50;;;;;;462615;256;1599;-43
2023/01/20 11:28:54;;;;;;;;;;;20.90;31.50;;;;;;462614;256;1753;-43
2023/01/20 11:30:56;;;;;;;;;;;20.90;31.50;;;;;;462646;256;2158;-43
2023/01/20 11:32:57;;;;;;;;;;;20.90;31.50;;;;;;462615;256;1682;-43
2023/01/20 11:34:58;;;;;;;;;;;20.90;31.50;;;;;;462804;256;1845;-42
2023/01/20 11:37:00;;;;;;;;;;;20.90;31.50;;;;;;462533;256;2195;-43
2023/01/20 11:39:01;;;;;;;;;;;20.90;31.50;;;;;;462621;256;2338;-43
2023/01/20 11:41:02;;;;;;;;;;;20.90;31.50;;;;;;462903;256;1691;-43
2023/01/20 11:43:04;;;;;;;;;;;20.90;31.50;;;;;;462882;257;2207;-43
2023/01/20 11:45:05;;;;;;;;;;;20.90;31.50;;;;;;462759;256;2291;-42
2023/01/20 11:47:06;;;;;;;;;;;20.90;31.50;;;;;;462718;256;1880;-43
2023/01/20 11:49:08;;;;;;;;;;;20.90;31.50;;;;;;462645;256;1743;-43
2023/01/20 11:51:09;;;;;;;;;;;20.90;31.50;;;;;;462713;256;1620;-43
2023/01/20 11:53:10;;;;;;;;;;;20.80;31.50;;;;;;462849;256;1978;-43
2023/01/20 11:55:12;;;;;;;;;;;20.90;31.50;;;;;;463005;256;1703;-43
2023/01/20 11:57:13;;;;;;;;;;;20.80;31.50;;;;;;462811;256;2199;-43
2023/01/20 11:59:14;;;;;;;;;;;20.80;31.50;;;;;;462661;256;1705;-43
2023/01/20 12:01:16;;;;;;;;;;;20.80;31.50;;;;;;462564;256;1643;-43
2023/01/20 12:03:17;;;;;;;;;;;20.80;31.50;;;;;;462636;256;1887;-43
2023/01/20 12:05:19;;;;;;;;;;;20.90;31.50;;;;;;462774;256;1694;-43
2023/01/20 12:07:20;;;;;;;;;;;20.90;31.50;;;;;;462633;256;2320;-43
2023/01/20 12:09:21;;;;;;;;;;;20.80;31.50;;;;;;462767;256;2175;-42
2023/01/20 12:11:23;;;;;;;;;;;20.80;31.50;;;;;;462673;256;1729;-43